WetterOnline ( https://www.wetteronline.de )

Wetter aktuell Soro

Aktuelles Wetter: Flakkebjerg (34m)

6-stündlich | Neueste Meldungen
Ortszeit Temperatur Wetter
Do, 01.10. 20:00 14.9° C bewölkt
Do, 01.10. 14:00 16.9° C leicht bewölkt
Do, 01.10. 8:00 12.3° C wolkig
Do, 01.10. 2:00 13.0° C wolkenlos
Mi, 30.09. 20:00 13.4° C wolkenlos
Mi, 30.09. 14:00 16.4° C bewölkt
Mi, 30.09. 8:00 13.2° C bewölkt
Mi, 30.09. 2:00 12.1° C wolkenlos
Ortszeit Temperatur Wetter
Fr, 02.10. 1:00 14.2° C leicht bewölkt
Fr, 02.10. 0:00 14.4° C wolkig
Do, 01.10. 23:00 14.9° C wolkig
Do, 01.10. 22:00 14.6° C bedeckt
Do, 01.10. 21:00 14.8° C bedeckt
Do, 01.10. 20:00 14.9° C bewölkt
Ortszeit Relative Feuchte Sichtweite
Do, 01.10. 20:00 92% 10 km
Do, 01.10. 14:00 75% 30 km
Do, 01.10. 8:00 100% 11 km
Do, 01.10. 2:00 99% 5.0 km
Mi, 30.09. 20:00 87% 35 km
Mi, 30.09. 14:00 77% 35 km
Mi, 30.09. 8:00 97% 8 km
Mi, 30.09. 2:00 97% 7 km
Ortszeit Relative Feuchte Sichtweite
Fr, 02.10. 1:00 93% 13 km
Fr, 02.10. 0:00 91% 14 km
Do, 01.10. 23:00 88% 15 km
Do, 01.10. 22:00 90% 13 km
Do, 01.10. 21:00 87% 15 km
Do, 01.10. 20:00 92% 10 km
Ortszeit Niederschlagsmenge Niederschlagsart
Do, 01.10. 20:00 0.1 l/m2 in 12 Std. Regenschauer
Do, 01.10. 14:00 keine Meldung -
Do, 01.10. 8:00 0.0 l/m2 in 3 Std. -
Do, 01.10. 2:00 keine Meldung -
Mi, 30.09. 20:00 keine Meldung -
Mi, 30.09. 14:00 keine Meldung -
Mi, 30.09. 8:00 0.0 l/m2 in 3 Std. -
Mi, 30.09. 2:00 keine Meldung -
Ortszeit Niederschlagsmenge Niederschlagsart
Fr, 02.10. 1:00 keine Meldung -
Fr, 02.10. 0:00 0.0 l/m2 in 1 Std. -
Do, 01.10. 23:00 0.0 l/m2 in 1 Std. -
Do, 01.10. 22:00 0.0 l/m2 in 1 Std. -
Do, 01.10. 21:00 0.0 l/m2 in 1 Std. -
Do, 01.10. 20:00 keine Meldung -
Ortszeit Stärke Spitze Richtung
km/h Bft. km/h Grad Sektor
Do, 01.10. 20:00 20 4 - 90° O
Do, 01.10. 14:00 26 4 - 100° O
Do, 01.10. 8:00 9 2 - 100° O
Do, 01.10. 2:00 9 2 - 110° O
Mi, 30.09. 20:00 9 2 - 100° O
Mi, 30.09. 14:00 13 3 - 170° S
Mi, 30.09. 8:00 6 1 - 120° SO
Mi, 30.09. 2:00 9 2 - 120° SO
Ortszeit Stärke Spitze Richtung
km/h Bft. km/h Grad Sektor
Fr, 02.10. 1:00 15 3 - 100° O
Fr, 02.10. 0:00 14 3 - 100° O
Do, 01.10. 23:00 18 3 - 100° O
Do, 01.10. 22:00 18 3 - 90° O
Do, 01.10. 21:00 25 4 - 90° O
Do, 01.10. 20:00 20 4 - 90° O
Ortszeit Untergrenze Bedeckung Gattung
total tief tief mittel hoch
Do, 01.10. 20:00 360 m 7/8 7/8 - - -
Do, 01.10. 14:00 660 m 3/8 3/8 - - -
Do, 01.10. 8:00 450 m 5/8 5/8 - - -
Do, 01.10. 2:00 - 0/8 0/8 - - -
Mi, 30.09. 20:00 - 0/8 0/8 - - -
Mi, 30.09. 14:00 570 m 7/8 7/8 - - -
Mi, 30.09. 8:00 810 m 7/8 7/8 - - -
Mi, 30.09. 2:00 - 0/8 0/8 - - -
Ortszeit Bedeckungsgrad in Achtel und Wolkenuntergrenze
Fr, 02.10. 1:00 1(1230m) 5(4200m)
Fr, 02.10. 0:00 1(390m) 7(4200m)
Do, 01.10. 23:00 1(480m) 5(1200m) 7(5700m)
Do, 01.10. 22:00 5(780m) 8(900m)
Do, 01.10. 21:00 1(360m) 8(600m)
Do, 01.10. 20:00 1(360m) 7(600m)
Ortszeit Luftdruck NN (hPa) Tendenz (hPa in 3 Std.)
Do, 01.10. 20:00 1005 - 0,8
Do, 01.10. 14:00 1008 - 2,2
Do, 01.10. 8:00 1011 - 1,0
Do, 01.10. 2:00 1014 - 1,2
Mi, 30.09. 20:00 1015 + 0,1
Mi, 30.09. 14:00 1016 - 0,4
Mi, 30.09. 8:00 1016 + 0,2
Mi, 30.09. 2:00 1017 - 0,4
Ortszeit Luftdruck NN (hPa) Tendenz (hPa in 3 Std.)
Fr, 02.10. 1:00 1003 - 1,2
Fr, 02.10. 0:00 1004 - 1,1
Do, 01.10. 23:00 1004 - 0,9
Do, 01.10. 22:00 1004 - 0,8
Do, 01.10. 21:00 1005 - 0,7
Do, 01.10. 20:00 1005 - 0,8
Ortszeit Schneehöhe (cm)
Do, 01.10. 20:00 -
Do, 01.10. 14:00 -
Do, 01.10. 8:00 -
Do, 01.10. 2:00 -
Mi, 30.09. 20:00 -
Mi, 30.09. 14:00 -
Mi, 30.09. 8:00 -
Mi, 30.09. 2:00 -
Ortszeit Schneehöhe (cm)
Fr, 02.10. 1:00 -
Fr, 02.10. 0:00 -
Do, 01.10. 23:00 -
Do, 01.10. 22:00 -
Do, 01.10. 21:00 -
Do, 01.10. 20:00 -
Link zu dieser Seite / Seite empfehlen

Das Wetter in ...